createdAt,value
2022-09-15T00:01:40.054Z,16.80
2022-09-15T00:04:10.332Z,16.80
2022-09-15T00:06:38.928Z,16.90
2022-09-15T00:09:06.940Z,16.80
2022-09-15T00:11:38.344Z,16.90
2022-09-15T00:14:09.076Z,16.90
2022-09-15T00:16:38.368Z,16.90
2022-09-15T00:19:07.491Z,16.90
2022-09-15T00:21:41.893Z,16.80
2022-09-15T00:24:11.226Z,16.90
2022-09-15T00:26:40.125Z,17.00
2022-09-15T00:29:09.568Z,17.00
2022-09-15T00:31:37.885Z,17.00
2022-09-15T00:34:07.599Z,17.00
2022-09-15T00:36:37.291Z,17.00
2022-09-15T00:39:06.843Z,17.00
2022-09-15T00:41:35.718Z,17.00
2022-09-15T00:44:08.448Z,17.10
2022-09-15T00:46:41.765Z,17.10
2022-09-15T00:49:15.965Z,17.20
2022-09-15T00:51:52.694Z,17.20
2022-09-15T00:54:42.094Z,17.30
2022-09-15T00:57:19.116Z,17.30
2022-09-15T00:59:50.079Z,17.30
2022-09-15T01:02:24.107Z,17.30
2022-09-15T01:04:58.129Z,17.30
2022-09-15T01:07:35.867Z,17.30
2022-09-15T01:10:11.899Z,17.30
2022-09-15T01:12:41.833Z,17.40
2022-09-15T01:15:10.460Z,17.40
2022-09-15T01:17:57.276Z,17.40
2022-09-15T01:21:11.089Z,17.40
2022-09-15T01:24:28.985Z,17.40
2022-09-15T01:27:40.348Z,17.40
2022-09-15T01:30:12.783Z,17.50
2022-09-15T01:33:11.649Z,17.50
2022-09-15T01:35:58.322Z,17.50
2022-09-15T01:38:48.009Z,17.60
2022-09-15T01:41:25.285Z,17.60
2022-09-15T01:44:03.300Z,17.70
2022-09-15T01:46:40.817Z,17.70
2022-09-15T01:49:14.724Z,17.70
2022-09-15T01:51:46.905Z,17.70
2022-09-15T01:54:17.488Z,17.80
2022-09-15T01:56:46.196Z,17.80
2022-09-15T01:59:14.484Z,17.80
2022-09-15T02:01:52.040Z,17.90
2022-09-15T02:04:29.608Z,17.90
2022-09-15T02:07:11.714Z,17.90
2022-09-15T02:09:48.644Z,17.90
2022-09-15T02:12:29.308Z,17.90
2022-09-15T02:15:03.572Z,18.00
2022-09-15T02:17:36.087Z,18.00
2022-09-15T02:20:16.749Z,17.90
2022-09-15T02:22:50.957Z,17.90
2022-09-15T02:25:29.240Z,17.90
2022-09-15T02:28:04.073Z,17.90
2022-09-15T02:30:37.010Z,17.90
2022-09-15T02:33:14.055Z,17.90
2022-09-15T02:35:43.929Z,18.00
2022-09-15T02:38:14.047Z,18.00
2022-09-15T02:40:45.711Z,17.90
2022-09-15T02:43:19.581Z,18.00
2022-09-15T02:45:49.943Z,18.00
2022-09-15T02:48:19.377Z,18.00
2022-09-15T02:50:48.394Z,18.00
2022-09-15T02:53:16.453Z,18.00
2022-09-15T02:55:44.462Z,18.00
2022-09-15T02:58:13.389Z,18.00
2022-09-15T03:00:41.894Z,18.00
2022-09-15T03:03:10.716Z,18.00
2022-09-15T03:05:40.195Z,18.10
2022-09-15T03:08:08.665Z,18.00
2022-09-15T03:10:36.800Z,18.00
2022-09-15T03:13:05.255Z,18.10
2022-09-15T03:15:33.722Z,18.10
2022-09-15T03:18:03.113Z,18.10
2022-09-15T03:20:31.841Z,18.10
2022-09-15T03:23:03.248Z,18.20
2022-09-15T03:25:33.071Z,18.20
2022-09-15T03:28:01.512Z,18.20
2022-09-15T03:30:29.547Z,18.20
2022-09-15T03:32:57.714Z,18.20
2022-09-15T03:35:26.188Z,18.20
2022-09-15T03:37:54.215Z,18.20
2022-09-15T03:40:24.423Z,18.20
2022-09-15T03:42:52.550Z,18.10
2022-09-15T03:45:20.624Z,18.20
2022-09-15T03:47:49.150Z,18.20
2022-09-15T03:50:17.411Z,18.10
2022-09-15T03:52:46.875Z,18.00
2022-09-15T03:55:15.189Z,17.70
2022-09-15T03:57:45.589Z,17.50
2022-09-15T04:00:15.675Z,17.30
2022-09-15T04:02:43.744Z,17.20
2022-09-15T04:05:13.642Z,17.20
2022-09-15T04:07:42.222Z,17.10
2022-09-15T04:10:11.515Z,17.10
2022-09-15T04:12:39.680Z,17.10
2022-09-15T04:15:09.897Z,17.00
2022-09-15T04:17:38.002Z,17.00
2022-09-15T04:20:07.486Z,17.00
2022-09-15T04:22:36.199Z,17.00
2022-09-15T04:25:04.752Z,16.90
2022-09-15T04:27:34.408Z,16.90
2022-09-15T04:30:02.587Z,16.90
2022-09-15T04:32:32.549Z,17.00
2022-09-15T04:35:00.535Z,17.00
2022-09-15T04:37:29.137Z,17.00
2022-09-15T04:39:57.603Z,17.00
2022-09-15T04:42:25.887Z,17.10
2022-09-15T04:44:53.932Z,17.10
2022-09-15T04:47:22.157Z,17.10
2022-09-15T04:49:51.863Z,17.10
2022-09-15T04:52:20.340Z,17.10
2022-09-15T04:54:48.619Z,17.20
2022-09-15T04:57:16.677Z,17.10
2022-09-15T04:59:44.713Z,17.20
2022-09-15T05:02:12.918Z,17.20
2022-09-15T05:04:41.569Z,17.40
2022-09-15T05:07:10.997Z,17.30
2022-09-15T05:09:39.656Z,17.40
2022-09-15T05:12:08.324Z,17.40
2022-09-15T05:14:36.374Z,17.40
2022-09-15T05:17:04.484Z,17.40
2022-09-15T05:19:33.005Z,17.40
2022-09-15T05:22:01.116Z,17.40
2022-09-15T05:24:30.528Z,17.40
2022-09-15T05:26:58.665Z,17.40
2022-09-15T05:29:27.236Z,17.40
2022-09-15T05:31:55.415Z,17.50
2022-09-15T05:34:24.000Z,17.50
2022-09-15T05:36:52.183Z,17.50
2022-09-15T05:39:20.246Z,17.40
2022-09-15T05:41:50.346Z,17.30
2022-09-15T05:44:18.782Z,17.40
2022-09-15T05:46:47.485Z,17.40
2022-09-15T05:49:16.177Z,17.40
2022-09-15T05:51:44.193Z,17.40
2022-09-15T05:54:12.788Z,17.30
2022-09-15T05:56:41.338Z,17.40
2022-09-15T05:59:10.801Z,17.40
2022-09-15T06:01:39.507Z,17.30
2022-09-15T06:04:07.575Z,17.40
2022-09-15T06:06:36.384Z,17.40
2022-09-15T06:09:07.699Z,17.40
2022-09-15T06:11:36.195Z,17.40
2022-09-15T06:14:06.387Z,17.30
2022-09-15T06:16:36.884Z,17.30
2022-09-15T06:19:06.333Z,17.20
2022-09-15T06:21:34.958Z,17.20
2022-09-15T06:24:06.990Z,17.30
2022-09-15T06:26:36.097Z,17.20
2022-09-15T06:29:06.351Z,17.30
2022-09-15T06:31:36.921Z,17.30
2022-09-15T06:34:05.532Z,17.30
2022-09-15T06:36:34.923Z,17.30
2022-09-15T06:39:03.093Z,17.30
2022-09-15T06:41:47.399Z,17.30
2022-09-15T06:44:21.206Z,17.30
2022-09-15T06:46:51.676Z,17.40
2022-09-15T06:49:22.323Z,17.40
2022-09-15T06:51:50.605Z,17.40
2022-09-15T06:54:18.949Z,17.30
2022-09-15T06:56:47.275Z,17.20
2022-09-15T06:59:17.296Z,17.30
2022-09-15T07:01:45.779Z,17.20
2022-09-15T07:04:15.534Z,17.10
2022-09-15T07:06:43.633Z,17.10
2022-09-15T07:09:13.409Z,17.20
2022-09-15T07:11:41.946Z,17.20
2022-09-15T07:14:10.134Z,17.30
2022-09-15T07:16:38.504Z,17.30
2022-09-15T07:19:06.726Z,17.30
2022-09-15T07:21:37.482Z,17.30
2022-09-15T07:24:07.606Z,17.30
2022-09-15T07:26:36.215Z,17.30
2022-09-15T07:29:08.203Z,17.30
2022-09-15T07:31:39.858Z,17.20
2022-09-15T07:34:09.195Z,17.20
2022-09-15T07:36:38.764Z,17.10
2022-09-15T07:39:07.658Z,17.10
2022-09-15T07:41:36.279Z,17.10
2022-09-15T07:44:04.911Z,17.20
2022-09-15T07:46:34.227Z,17.20
2022-09-15T07:49:03.933Z,17.30
2022-09-15T07:51:32.333Z,17.40
2022-09-15T07:54:02.077Z,17.40
2022-09-15T07:56:30.319Z,17.50
2022-09-15T07:58:59.008Z,17.70
2022-09-15T08:01:28.050Z,17.80
2022-09-15T08:03:56.175Z,17.90
2022-09-15T08:06:27.119Z,18.00
2022-09-15T08:09:00.340Z,18.00
2022-09-15T08:11:30.461Z,17.90
2022-09-15T08:14:03.313Z,17.90
2022-09-15T08:16:31.888Z,17.80
2022-09-15T08:19:00.486Z,17.80
2022-09-15T08:21:29.546Z,17.70
2022-09-15T08:24:01.654Z,17.80
2022-09-15T08:26:31.761Z,17.70
2022-09-15T08:29:00.923Z,17.50
2022-09-15T08:31:29.455Z,17.30
2022-09-15T08:33:58.269Z,17.10
2022-09-15T08:36:27.772Z,16.90
2022-09-15T08:38:56.459Z,16.80
2022-09-15T08:41:33.333Z,16.70
2022-09-15T08:44:12.259Z,16.60
2022-09-15T08:46:49.386Z,16.60
2022-09-15T08:49:49.977Z,16.50
2022-09-15T08:52:24.472Z,16.40
2022-09-15T08:54:58.080Z,16.30
2022-09-15T08:57:27.770Z,16.30
2022-09-15T08:59:56.309Z,16.30
2022-09-15T09:03:01.827Z,16.10
2022-09-15T09:05:48.476Z,16.00
2022-09-15T09:08:55.723Z,15.90
2022-09-15T09:11:38.309Z,15.90
2022-09-15T09:14:24.445Z,15.90
2022-09-15T09:17:13.646Z,16.00
2022-09-15T09:20:04.657Z,16.00
2022-09-15T09:22:39.065Z,15.90
2022-09-15T09:25:26.494Z,15.90
2022-09-15T09:27:59.070Z,15.90
2022-09-15T09:30:34.080Z,16.00
2022-09-15T09:33:23.967Z,16.00
2022-09-15T09:35:54.085Z,15.90
2022-09-15T09:38:27.484Z,15.90
2022-09-15T09:40:58.683Z,16.00
2022-09-15T09:43:31.896Z,15.70
2022-09-15T09:46:02.109Z,15.70
2022-09-15T09:48:31.533Z,15.70
2022-09-15T09:50:59.628Z,15.70
2022-09-15T09:53:32.005Z,15.70
2022-09-15T09:56:23.479Z,15.50
2022-09-15T09:58:51.964Z,15.50
2022-09-15T10:01:25.330Z,15.50
2022-09-15T10:04:14.284Z,15.50
2022-09-15T10:06:42.709Z,15.40
2022-09-15T10:09:18.059Z,15.40
2022-09-15T10:11:49.956Z,15.30
2022-09-15T10:14:23.371Z,15.40
2022-09-15T10:17:08.441Z,15.30
2022-09-15T10:19:47.133Z,15.10
2022-09-15T10:22:27.186Z,15.10
2022-09-15T10:24:55.740Z,15.20
2022-09-15T10:27:33.991Z,15.30
2022-09-15T10:30:19.664Z,15.30
2022-09-15T10:32:49.327Z,15.30
2022-09-15T10:35:20.947Z,15.30
2022-09-15T10:38:04.919Z,15.40
2022-09-15T10:40:42.670Z,15.50
2022-09-15T10:43:33.089Z,15.50
2022-09-15T10:46:10.543Z,15.50
2022-09-15T10:48:52.035Z,15.50
2022-09-15T10:51:47.107Z,15.60
2022-09-15T10:54:49.865Z,15.50
2022-09-15T10:57:44.738Z,15.50
2022-09-15T11:00:20.912Z,15.50
2022-09-15T11:03:43.770Z,15.50
2022-09-15T11:06:24.225Z,15.50
2022-09-15T11:09:14.907Z,15.50
2022-09-15T11:12:04.268Z,15.50
2022-09-15T11:14:57.448Z,15.50
2022-09-15T11:17:43.755Z,15.50
2022-09-15T11:20:30.188Z,15.60
2022-09-15T11:23:11.199Z,15.70
2022-09-15T11:25:45.796Z,15.80
2022-09-15T11:28:26.498Z,16.00
2022-09-15T11:31:01.717Z,16.00
2022-09-15T11:33:38.870Z,16.00
2022-09-15T11:36:15.698Z,16.00
2022-09-15T11:38:53.283Z,16.00
2022-09-15T11:41:31.525Z,16.00
2022-09-15T11:44:19.565Z,15.90
2022-09-15T11:47:09.851Z,15.90
2022-09-15T11:49:47.275Z,16.00
2022-09-15T11:52:50.576Z,16.20
2022-09-15T11:55:31.873Z,16.20
2022-09-15T11:58:22.033Z,16.30
2022-09-15T12:00:58.310Z,16.40
2022-09-15T12:03:35.379Z,16.60
2022-09-15T12:06:14.653Z,16.80
2022-09-15T12:08:50.881Z,16.90
2022-09-15T12:11:24.303Z,17.00
2022-09-15T12:13:55.659Z,16.90
2022-09-15T12:16:25.254Z,17.00
2022-09-15T12:19:02.325Z,17.00
2022-09-15T12:21:40.666Z,17.10
2022-09-15T12:24:18.240Z,17.20
2022-09-15T12:26:49.173Z,17.40
2022-09-15T12:29:42.176Z,17.70
2022-09-15T12:32:27.747Z,18.40
2022-09-15T12:35:32.668Z,18.80
2022-09-15T12:38:01.909Z,19.40
2022-09-15T12:40:37.791Z,19.80
2022-09-15T12:43:23.687Z,20.10
2022-09-15T12:45:58.960Z,20.10
2022-09-15T12:48:32.211Z,20.00
2022-09-15T12:51:04.914Z,20.00
2022-09-15T12:53:39.601Z,19.70
2022-09-15T12:56:22.345Z,19.50
2022-09-15T12:58:54.734Z,19.20
2022-09-15T13:01:48.788Z,18.90
2022-09-15T13:04:58.948Z,18.70
2022-09-15T13:07:37.205Z,18.20
2022-09-15T13:10:30.811Z,17.90
2022-09-15T13:13:31.201Z,17.70
2022-09-15T13:16:04.021Z,17.70
2022-09-15T13:18:33.720Z,18.80
2022-09-15T13:21:11.813Z,20.10
2022-09-15T13:23:45.872Z,21.30
2022-09-15T13:26:22.559Z,22.40
2022-09-15T13:28:55.677Z,22.80
2022-09-15T13:31:38.681Z,23.00
2022-09-15T13:35:05.043Z,23.60
2022-09-15T13:38:32.165Z,24.20
2022-09-15T13:41:32.860Z,24.30
2022-09-15T13:44:35.544Z,24.30
2022-09-15T13:47:34.041Z,23.70
2022-09-15T13:50:20.115Z,24.00
2022-09-15T13:53:08.789Z,24.30
2022-09-15T13:55:39.407Z,24.40
2022-09-15T14:01:08.160Z,23.50
2022-09-15T14:03:46.938Z,22.50
2022-09-15T14:06:21.004Z,22.10
2022-09-15T14:08:54.321Z,21.90
2022-09-15T14:11:29.256Z,21.60
2022-09-15T14:14:00.513Z,21.60
2022-09-15T14:16:36.418Z,21.30
2022-09-15T14:19:34.323Z,20.80
2022-09-15T14:22:17.305Z,20.60
2022-09-15T14:24:45.790Z,21.10
2022-09-15T14:27:22.155Z,21.80
2022-09-15T14:29:55.143Z,22.20
2022-09-15T14:32:24.080Z,21.80
2022-09-15T14:34:55.276Z,21.60
2022-09-15T14:37:27.867Z,21.20
2022-09-15T14:40:01.582Z,20.80
2022-09-15T14:42:32.667Z,20.50
2022-09-15T14:48:08.583Z,20.20
2022-09-15T14:50:38.933Z,20.10
2022-09-15T14:53:12.172Z,19.80
2022-09-15T14:55:51.188Z,19.50
2022-09-15T14:58:25.942Z,19.30
2022-09-15T15:01:01.435Z,19.20
2022-09-15T15:03:40.082Z,19.10
2022-09-15T15:06:34.586Z,19.20
2022-09-15T15:09:10.442Z,19.20
2022-09-15T15:11:42.239Z,19.10
2022-09-15T15:14:14.495Z,19.00
2022-09-15T15:16:54.850Z,18.90
2022-09-15T15:19:35.616Z,18.80
2022-09-15T15:22:20.855Z,18.70
2022-09-15T15:24:52.781Z,18.70
2022-09-15T15:27:43.542Z,18.60
2022-09-15T15:30:36.078Z,18.60
2022-09-15T15:33:07.926Z,18.60
2022-09-15T15:35:37.232Z,18.70
2022-09-15T15:38:16.361Z,18.70
2022-09-15T15:40:46.691Z,18.70
2022-09-15T15:43:26.426Z,18.70
2022-09-15T15:46:00.824Z,18.70
2022-09-15T15:48:36.885Z,18.60
2022-09-15T15:51:07.689Z,18.70
2022-09-15T15:53:37.119Z,18.60
2022-09-15T15:56:05.354Z,18.70
2022-09-15T15:58:33.672Z,18.70
2022-09-15T16:01:01.849Z,18.70
2022-09-15T16:03:30.640Z,18.70
2022-09-15T16:06:02.935Z,18.70
2022-09-15T16:08:38.344Z,18.60
2022-09-15T16:11:12.325Z,18.70
2022-09-15T16:13:40.488Z,18.70
2022-09-15T16:16:17.134Z,18.70
2022-09-15T16:18:45.706Z,18.70
2022-09-15T16:21:19.687Z,18.60
2022-09-15T16:23:48.234Z,18.60
2022-09-15T16:26:24.585Z,18.80
2022-09-15T16:28:52.757Z,18.70
2022-09-15T16:31:21.351Z,18.60
2022-09-15T16:33:49.531Z,18.60
2022-09-15T16:36:19.180Z,18.50
2022-09-15T16:38:47.372Z,18.50
2022-09-15T16:41:20.616Z,18.50
2022-09-15T16:43:49.133Z,18.40
2022-09-15T16:46:17.800Z,18.40
2022-09-15T16:48:47.154Z,18.30
2022-09-15T16:51:26.784Z,18.20
2022-09-15T16:53:58.183Z,18.20
2022-09-15T16:56:28.015Z,18.10
2022-09-15T16:59:00.063Z,18.10
2022-09-15T17:01:29.268Z,18.00
2022-09-15T17:03:57.766Z,17.90
2022-09-15T17:06:26.274Z,18.00
2022-09-15T17:08:55.975Z,17.70
2022-09-15T17:11:25.450Z,17.70
2022-09-15T17:13:55.348Z,17.60
2022-09-15T17:16:23.453Z,17.60
2022-09-15T17:18:52.110Z,17.50
2022-09-15T17:21:20.605Z,17.50
2022-09-15T17:23:50.884Z,17.40
2022-09-15T17:26:21.470Z,17.40
2022-09-15T17:28:50.699Z,17.30
2022-09-15T17:31:23.545Z,17.40
2022-09-15T17:33:53.490Z,17.30
2022-09-15T17:36:21.894Z,17.20
2022-09-15T17:38:49.989Z,17.20
2022-09-15T17:41:22.898Z,17.10
2022-09-15T17:43:51.841Z,17.10
2022-09-15T17:46:21.650Z,17.00
2022-09-15T17:48:50.259Z,17.00
2022-09-15T17:51:18.992Z,17.00
2022-09-15T17:53:48.042Z,17.00
2022-09-15T17:56:16.254Z,17.20
2022-09-15T17:58:44.253Z,17.00
2022-09-15T18:01:15.175Z,16.90
2022-09-15T18:03:46.800Z,16.90
2022-09-15T18:06:15.135Z,16.90
2022-09-15T18:08:43.317Z,16.80
2022-09-15T18:11:15.837Z,16.80
2022-09-15T18:13:44.051Z,16.60
2022-09-15T18:16:15.278Z,16.70
2022-09-15T18:18:44.863Z,16.70
2022-09-15T18:21:28.401Z,16.60
2022-09-15T18:23:57.002Z,16.60
2022-09-15T18:26:26.836Z,16.50
2022-09-15T18:28:56.034Z,16.50
2022-09-15T18:31:24.423Z,16.40
2022-09-15T18:33:54.416Z,16.30
2022-09-15T18:36:22.816Z,16.40
2022-09-15T18:38:50.920Z,16.30
2022-09-15T18:41:19.399Z,16.30
2022-09-15T18:43:49.033Z,16.20
2022-09-15T18:46:18.472Z,16.20
2022-09-15T18:48:46.785Z,16.20
2022-09-15T18:51:24.170Z,16.10
2022-09-15T18:53:58.325Z,16.20
2022-09-15T18:56:26.579Z,16.00
2022-09-15T18:58:55.681Z,16.00
2022-09-15T19:01:24.183Z,15.90
2022-09-15T19:03:52.718Z,15.90
2022-09-15T19:06:22.129Z,15.80
2022-09-15T19:08:50.686Z,15.80
2022-09-15T19:11:19.778Z,15.70
2022-09-15T19:13:48.412Z,15.60
2022-09-15T19:16:18.276Z,15.60
2022-09-15T19:18:51.709Z,15.60
2022-09-15T19:21:25.207Z,15.60
2022-09-15T19:23:58.311Z,15.50
2022-09-15T19:26:28.787Z,15.50
2022-09-15T19:28:58.435Z,15.50
2022-09-15T19:31:27.591Z,15.50
2022-09-15T19:33:55.747Z,15.40
2022-09-15T19:36:29.169Z,15.40
2022-09-15T19:38:59.468Z,15.40
2022-09-15T19:41:28.652Z,15.40
2022-09-15T19:43:56.951Z,15.30
2022-09-15T19:46:26.623Z,15.30
2022-09-15T19:48:55.597Z,15.20
2022-09-15T19:51:26.141Z,15.30
2022-09-15T19:53:58.409Z,15.20
2022-09-15T19:56:28.797Z,15.10
2022-09-15T19:58:59.127Z,15.10
2022-09-15T20:01:30.371Z,15.10
2022-09-15T20:03:59.119Z,15.10
2022-09-15T20:06:32.518Z,15.00
2022-09-15T20:09:01.548Z,15.00
2022-09-15T20:11:32.091Z,15.00
2022-09-15T20:14:01.663Z,14.90
2022-09-15T20:16:30.425Z,14.90
2022-09-15T20:18:58.767Z,14.90
2022-09-15T20:21:50.468Z,14.80
2022-09-15T20:24:21.335Z,14.80
2022-09-15T20:26:49.770Z,14.80
2022-09-15T20:29:18.469Z,14.70
2022-09-15T20:31:47.083Z,14.80
2022-09-15T20:34:15.322Z,14.70
2022-09-15T20:36:45.209Z,14.70
2022-09-15T20:39:16.582Z,14.70
2022-09-15T20:41:45.675Z,14.70
2022-09-15T20:44:15.481Z,14.70
2022-09-15T20:46:44.105Z,14.70
2022-09-15T20:49:13.376Z,14.60
2022-09-15T20:51:41.644Z,14.70
2022-09-15T20:54:11.846Z,14.70
2022-09-15T20:56:40.246Z,14.70
2022-09-15T20:59:10.607Z,14.70
2022-09-15T21:01:40.713Z,14.60
2022-09-15T21:04:10.825Z,14.70
2022-09-15T21:06:39.689Z,14.70
2022-09-15T21:09:10.048Z,14.60
2022-09-15T21:11:39.419Z,14.60
2022-09-15T21:14:07.556Z,14.60
2022-09-15T21:16:36.002Z,14.60
2022-09-15T21:19:05.003Z,14.50
2022-09-15T21:21:34.647Z,14.50
2022-09-15T21:24:05.353Z,14.50
2022-09-15T21:27:00.194Z,14.50
2022-09-15T21:29:29.931Z,14.50
2022-09-15T21:31:58.644Z,14.50
2022-09-15T21:34:26.904Z,14.50
2022-09-15T21:36:55.723Z,14.50
2022-09-15T21:39:24.337Z,14.40
2022-09-15T21:41:54.388Z,14.40
2022-09-15T21:44:23.160Z,14.40
2022-09-15T21:46:52.663Z,14.40
2022-09-15T21:49:21.688Z,14.40
2022-09-15T21:51:49.928Z,14.40
2022-09-15T21:54:19.681Z,14.40
2022-09-15T21:56:47.780Z,14.40
2022-09-15T21:59:18.496Z,14.40
2022-09-15T22:01:47.012Z,14.30
2022-09-15T22:04:16.168Z,14.30
2022-09-15T22:06:45.063Z,14.50
2022-09-15T22:09:17.911Z,14.40
2022-09-15T22:11:46.152Z,14.30
2022-09-15T22:14:16.205Z,14.30
2022-09-15T22:16:44.665Z,14.30
2022-09-15T22:19:14.003Z,14.40
2022-09-15T22:21:42.999Z,14.30
2022-09-15T22:24:13.672Z,14.40
2022-09-15T22:26:43.786Z,14.30
2022-09-15T22:29:12.396Z,14.40
2022-09-15T22:31:42.911Z,14.50
2022-09-15T22:34:11.161Z,14.50
2022-09-15T22:36:40.418Z,14.60
2022-09-15T22:39:08.905Z,14.60
2022-09-15T22:41:39.237Z,14.80
2022-09-15T22:44:14.768Z,14.70
2022-09-15T22:46:44.273Z,14.70
2022-09-15T22:49:12.607Z,14.80
2022-09-15T22:51:40.863Z,14.90
2022-09-15T22:54:09.268Z,15.00
2022-09-15T22:56:37.372Z,15.10
2022-09-15T22:59:06.168Z,15.10
2022-09-15T23:01:34.305Z,15.10
2022-09-15T23:04:04.531Z,15.20
2022-09-15T23:06:35.514Z,15.20
2022-09-15T23:09:07.867Z,15.20
2022-09-15T23:11:40.365Z,15.30
2022-09-15T23:14:15.243Z,15.30
2022-09-15T23:16:44.552Z,15.30
2022-09-15T23:19:15.045Z,15.30
2022-09-15T23:21:43.869Z,15.30
2022-09-15T23:24:14.069Z,15.30
2022-09-15T23:26:42.130Z,15.40
2022-09-15T23:29:11.390Z,15.40
2022-09-15T23:31:39.604Z,15.40
2022-09-15T23:34:08.364Z,15.50
2022-09-15T23:36:38.694Z,15.50
2022-09-15T23:39:07.272Z,15.50
2022-09-15T23:41:36.887Z,15.50
2022-09-15T23:44:05.225Z,15.50
2022-09-15T23:46:34.305Z,15.50
2022-09-15T23:49:02.887Z,15.40
2022-09-15T23:51:31.711Z,15.40
2022-09-15T23:54:02.227Z,15.40
2022-09-15T23:56:31.210Z,15.50
2022-09-15T23:58:59.295Z,15.50
